createdAt,value
2018-10-06T00:00:22.462Z,9.54
2018-10-06T00:02:51.273Z,9.44
2018-10-06T00:05:21.262Z,9.37
2018-10-06T00:07:50.689Z,9.40
2018-10-06T00:10:19.890Z,9.31
2018-10-06T00:12:49.010Z,9.33
2018-10-06T00:15:18.546Z,9.28
2018-10-06T00:17:47.690Z,9.55
2018-10-06T00:20:16.829Z,9.33
2018-10-06T00:22:45.971Z,9.23
2018-10-06T00:25:15.094Z,9.42
2018-10-06T00:27:44.782Z,9.70
2018-10-06T00:30:13.982Z,9.71
2018-10-06T00:32:43.152Z,9.76
2018-10-06T00:35:12.289Z,9.72
2018-10-06T00:37:41.818Z,9.79
2018-10-06T00:40:11.555Z,9.64
2018-10-06T00:42:41.227Z,9.62
2018-10-06T00:45:10.870Z,9.68
2018-10-06T00:47:40.114Z,9.77
2018-10-06T00:50:09.234Z,9.71
2018-10-06T00:52:39.178Z,10.01
2018-10-06T00:55:15.327Z,10.04
2018-10-06T00:57:44.434Z,9.67
2018-10-06T01:00:13.574Z,9.42
2018-10-06T01:02:42.938Z,9.59
2018-10-06T01:05:13.007Z,9.60
2018-10-06T01:07:42.165Z,9.60
2018-10-06T01:10:12.214Z,9.49
2018-10-06T01:12:41.461Z,9.58
2018-10-06T01:15:10.648Z,9.75
2018-10-06T01:17:39.956Z,9.90
2018-10-06T01:20:09.366Z,9.96
2018-10-06T01:22:38.968Z,9.68
2018-10-06T01:25:08.454Z,9.61
2018-10-06T01:27:37.778Z,9.52
2018-10-06T01:30:07.269Z,9.70
2018-10-06T01:32:36.417Z,9.84
2018-10-06T01:35:05.704Z,10.03
2018-10-06T01:37:35.133Z,10.05
2018-10-06T01:40:04.282Z,10.07
2018-10-06T01:42:33.429Z,10.06
2018-10-06T01:45:02.993Z,9.99
2018-10-06T01:47:33.183Z,9.92
2018-10-06T01:50:02.457Z,9.59
2018-10-06T01:52:31.502Z,9.54
2018-10-06T01:55:00.630Z,9.66
2018-10-06T01:57:29.793Z,9.57
2018-10-06T02:00:01.171Z,9.31
2018-10-06T02:02:30.473Z,9.32
2018-10-06T02:04:59.773Z,9.58
2018-10-06T02:07:29.065Z,9.76
2018-10-06T02:09:58.327Z,9.74
2018-10-06T02:12:27.650Z,9.64
2018-10-06T02:14:57.390Z,9.25
2018-10-06T02:17:27.655Z,9.29
2018-10-06T02:19:57.041Z,9.38
2018-10-06T02:22:26.275Z,9.34
2018-10-06T02:24:56.080Z,9.20
2018-10-06T02:27:25.945Z,8.93
2018-10-06T02:29:55.175Z,8.78
2018-10-06T02:32:24.515Z,8.97
2018-10-06T02:34:53.761Z,9.27
2018-10-06T02:37:23.217Z,9.39
2018-10-06T02:39:52.449Z,9.14
2018-10-06T02:42:22.069Z,8.78
2018-10-06T02:44:51.334Z,8.58
2018-10-06T02:47:20.635Z,8.46
2018-10-06T02:49:51.274Z,8.52
2018-10-06T02:52:20.537Z,8.43
2018-10-06T02:54:49.730Z,8.42
2018-10-06T02:57:18.960Z,8.31
2018-10-06T02:59:48.134Z,8.21
2018-10-06T03:02:17.342Z,8.35
2018-10-06T03:04:46.513Z,8.38
2018-10-06T03:07:15.790Z,8.47
2018-10-06T03:09:45.427Z,8.50
2018-10-06T03:12:14.917Z,8.38
2018-10-06T03:14:44.235Z,8.30
2018-10-06T03:17:13.182Z,8.28
2018-10-06T03:19:42.863Z,8.49
2018-10-06T03:22:12.495Z,8.47
2018-10-06T03:24:41.677Z,8.49
2018-10-06T03:27:11.133Z,8.55
2018-10-06T03:29:40.267Z,8.56
2018-10-06T03:32:09.383Z,8.70
2018-10-06T03:34:38.494Z,8.55
2018-10-06T03:37:07.611Z,8.75
2018-10-06T03:39:36.793Z,8.87
2018-10-06T03:42:06.295Z,8.85
2018-10-06T03:44:35.386Z,8.76
2018-10-06T03:47:04.586Z,8.73
2018-10-06T03:49:33.669Z,8.74
2018-10-06T03:52:02.767Z,8.67
2018-10-06T03:54:32.601Z,8.70
2018-10-06T03:57:01.702Z,8.80
2018-10-06T03:59:30.786Z,8.94
2018-10-06T04:01:59.890Z,8.93
2018-10-06T04:04:29.014Z,8.88
2018-10-06T04:06:58.122Z,8.67
2018-10-06T04:09:27.226Z,8.43
2018-10-06T04:11:57.171Z,8.36
2018-10-06T04:14:26.537Z,8.58
2018-10-06T04:16:55.721Z,8.63
2018-10-06T04:19:24.642Z,8.69
2018-10-06T04:21:53.796Z,8.39
2018-10-06T04:24:22.909Z,8.20
2018-10-06T04:26:51.993Z,8.22
2018-10-06T04:29:21.118Z,8.23
2018-10-06T04:31:51.544Z,8.06
2018-10-06T04:34:20.658Z,7.99
2018-10-06T04:36:49.756Z,7.93
2018-10-06T04:39:18.869Z,7.80
2018-10-06T04:41:48.025Z,8.22
2018-10-06T04:44:17.150Z,8.07
2018-10-06T04:46:46.890Z,8.12
2018-10-06T04:49:16.002Z,8.16
2018-10-06T04:51:45.166Z,8.02
2018-10-06T04:54:14.831Z,7.89
2018-10-06T04:56:44.058Z,7.97
2018-10-06T04:59:13.318Z,7.71
2018-10-06T05:01:43.134Z,7.71
2018-10-06T05:04:12.814Z,7.79
2018-10-06T05:06:41.897Z,8.07
2018-10-06T05:09:11.006Z,8.18
2018-10-06T05:11:40.114Z,8.05
2018-10-06T05:14:09.230Z,8.13
2018-10-06T05:16:38.367Z,8.05
2018-10-06T05:19:07.623Z,8.01
2018-10-06T05:21:36.811Z,8.17
2018-10-06T05:24:06.044Z,8.39
2018-10-06T05:26:34.775Z,8.34
2018-10-06T05:29:04.119Z,8.15
2018-10-06T05:31:33.331Z,8.01
2018-10-06T05:34:02.497Z,7.88
2018-10-06T05:36:31.587Z,7.75
2018-10-06T05:39:01.232Z,7.83
2018-10-06T05:41:30.332Z,7.90
2018-10-06T05:43:59.475Z,7.91
2018-10-06T05:46:28.629Z,7.82
2018-10-06T05:48:58.158Z,8.11
2018-10-06T05:51:27.288Z,8.32
2018-10-06T05:53:56.506Z,8.37
2018-10-06T05:56:25.638Z,8.46
2018-10-06T05:58:55.605Z,8.44
2018-10-06T06:01:24.711Z,8.56
2018-10-06T06:03:53.834Z,8.95
2018-10-06T06:06:22.934Z,8.99
2018-10-06T06:08:52.035Z,8.90
2018-10-06T06:11:21.491Z,8.80
2018-10-06T06:13:50.658Z,8.85
2018-10-06T06:16:20.203Z,9.09
2018-10-06T06:18:50.079Z,9.28
2018-10-06T06:21:19.643Z,9.48
2018-10-06T06:23:48.829Z,9.46
2018-10-06T06:26:17.911Z,9.70
2018-10-06T06:28:47.725Z,10.41
2018-10-06T06:31:16.891Z,11.06
2018-10-06T06:33:46.070Z,11.41
2018-10-06T06:36:15.228Z,11.72
2018-10-06T06:38:44.638Z,12.06
2018-10-06T06:41:15.165Z,12.64
2018-10-06T06:43:44.299Z,13.38
2018-10-06T06:46:13.375Z,13.69
2018-10-06T06:48:42.508Z,13.34
2018-10-06T06:51:11.655Z,12.82
2018-10-06T06:53:40.794Z,12.92
2018-10-06T06:56:10.386Z,13.70
2018-10-06T06:58:40.162Z,14.82
2018-10-06T07:01:09.471Z,15.73
2018-10-06T07:03:38.639Z,16.18
2018-10-06T07:06:07.776Z,16.35
2018-10-06T07:08:36.929Z,15.46
2018-10-06T07:11:06.039Z,15.49
2018-10-06T07:13:35.206Z,15.82
2018-10-06T07:16:04.976Z,15.18
2018-10-06T07:18:35.692Z,15.30
2018-10-06T07:21:04.999Z,16.28
2018-10-06T07:23:34.530Z,16.80
2018-10-06T07:26:03.803Z,17.15
2018-10-06T07:28:32.944Z,17.39
2018-10-06T07:31:02.027Z,18.39
2018-10-06T07:33:31.129Z,19.86
2018-10-06T07:36:00.255Z,21.00
2018-10-06T07:38:30.055Z,22.74
2018-10-06T07:40:59.154Z,24.33
2018-10-06T07:43:28.337Z,25.37
2018-10-06T07:45:57.466Z,25.72
2018-10-06T07:48:26.566Z,24.17
2018-10-06T07:50:56.567Z,22.44
2018-10-06T07:53:25.712Z,24.75
2018-10-06T07:55:54.831Z,24.94
2018-10-06T07:58:24.094Z,24.65
2018-10-06T08:00:53.225Z,24.35
2018-10-06T08:03:22.377Z,25.97
2018-10-06T08:05:51.768Z,27.20
2018-10-06T08:08:21.758Z,28.02
2018-10-06T08:10:51.013Z,27.53
2018-10-06T08:13:20.748Z,28.47
2018-10-06T08:15:49.979Z,30.56
2018-10-06T08:18:18.865Z,31.78
2018-10-06T08:20:48.109Z,29.56
2018-10-06T08:23:18.002Z,28.86
2018-10-06T08:25:47.897Z,30.70
2018-10-06T08:28:17.785Z,30.66
2018-10-06T08:30:47.759Z,30.20
2018-10-06T08:33:17.155Z,30.34
2018-10-06T08:35:46.685Z,29.47
2018-10-06T08:38:16.131Z,25.56
2018-10-06T08:40:45.098Z,23.11
2018-10-06T08:43:14.841Z,22.80
2018-10-06T08:45:43.951Z,21.51
2018-10-06T08:48:13.342Z,21.97
2018-10-06T08:50:42.858Z,21.96
2018-10-06T08:53:12.098Z,23.22
2018-10-06T08:55:42.344Z,23.78
2018-10-06T08:58:11.700Z,23.39
2018-10-06T09:00:40.458Z,24.76
2018-10-06T09:03:10.052Z,28.06
2018-10-06T09:05:40.446Z,27.38
2018-10-06T09:08:09.730Z,27.36
2018-10-06T09:10:38.948Z,27.11
2018-10-06T09:13:08.234Z,26.57
2018-10-06T09:15:37.557Z,25.22
2018-10-06T09:18:07.346Z,24.23
2018-10-06T09:20:36.446Z,24.62
2018-10-06T09:23:05.658Z,23.71
2018-10-06T09:25:34.862Z,23.07
2018-10-06T09:28:04.029Z,22.42
2018-10-06T09:30:33.143Z,22.66
2018-10-06T09:33:02.430Z,22.87
2018-10-06T09:35:31.565Z,22.70
2018-10-06T09:38:00.694Z,22.23
2018-10-06T09:40:29.838Z,21.79
2018-10-06T09:42:58.998Z,21.35
2018-10-06T09:45:28.273Z,20.77
2018-10-06T09:47:58.393Z,21.31
2018-10-06T09:50:27.442Z,21.15
2018-10-06T09:52:56.255Z,21.43
2018-10-06T09:55:25.867Z,21.85
2018-10-06T09:57:55.045Z,22.16
2018-10-06T10:00:31.043Z,21.38
2018-10-06T10:03:05.456Z,21.23
2018-10-06T10:05:39.893Z,21.48
2018-10-06T10:08:09.647Z,22.60
2018-10-06T10:10:41.161Z,24.27
2018-10-06T10:13:10.606Z,27.06
2018-10-06T10:15:41.322Z,27.12
2018-10-06T10:18:11.036Z,28.18
2018-10-06T10:20:40.136Z,25.99
2018-10-06T10:23:09.972Z,24.88
2018-10-06T10:25:39.462Z,25.86
2018-10-06T10:28:08.566Z,26.33
2018-10-06T10:30:37.866Z,27.63
2018-10-06T10:33:07.578Z,25.93
2018-10-06T10:35:37.653Z,26.00
2018-10-06T10:38:07.691Z,25.04
2018-10-06T10:40:38.402Z,25.69
2018-10-06T10:43:08.342Z,25.51
2018-10-06T10:45:37.094Z,25.88
2018-10-06T10:48:06.861Z,26.12
2018-10-06T10:50:36.077Z,26.89
2018-10-06T10:53:05.401Z,29.43
2018-10-06T10:55:34.655Z,30.72
2018-10-06T10:58:05.258Z,35.19
2018-10-06T11:00:34.513Z,34.26
2018-10-06T11:03:03.575Z,36.70
2018-10-06T11:05:33.237Z,40.59
2018-10-06T11:08:02.375Z,40.37
2018-10-06T11:10:31.597Z,38.50
2018-10-06T11:13:00.712Z,35.46
2018-10-06T11:15:30.679Z,32.31
2018-10-06T11:18:00.534Z,33.65
2018-10-06T11:20:31.025Z,36.52
2018-10-06T11:23:01.639Z,37.21
2018-10-06T11:25:30.754Z,35.02
2018-10-06T11:27:59.878Z,32.52
2018-10-06T11:30:29.198Z,33.29
2018-10-06T11:32:58.271Z,33.12
2018-10-06T11:35:27.427Z,31.12
2018-10-06T11:37:56.611Z,29.90
2018-10-06T11:40:25.656Z,29.16
2018-10-06T11:42:54.754Z,28.85
2018-10-06T11:45:24.110Z,28.17
2018-10-06T11:47:53.214Z,27.76
2018-10-06T11:50:22.867Z,27.77
2018-10-06T11:52:51.943Z,26.27
2018-10-06T11:55:21.062Z,26.43
2018-10-06T11:57:50.371Z,25.92
2018-10-06T12:00:19.598Z,26.17
2018-10-06T12:02:48.598Z,26.20
2018-10-06T12:05:17.767Z,26.73
2018-10-06T12:07:46.862Z,27.07
2018-10-06T12:10:16.334Z,27.88
2018-10-06T12:12:45.482Z,27.49
2018-10-06T12:15:16.235Z,26.95
2018-10-06T12:17:45.392Z,26.98
2018-10-06T12:20:14.507Z,25.48
2018-10-06T12:22:43.653Z,25.69
2018-10-06T12:25:13.370Z,25.76
2018-10-06T12:27:43.206Z,26.58
2018-10-06T12:30:11.951Z,26.84
2018-10-06T12:32:41.318Z,27.54
2018-10-06T12:35:10.498Z,27.92
2018-10-06T12:37:39.543Z,28.14
2018-10-06T12:40:08.662Z,27.82
2018-10-06T12:42:37.837Z,28.33
2018-10-06T12:45:07.344Z,28.53
2018-10-06T12:47:36.433Z,28.58
2018-10-06T12:50:05.990Z,28.22
2018-10-06T12:52:35.117Z,28.70
2018-10-06T12:55:07.493Z,29.33
2018-10-06T12:57:36.586Z,30.20
2018-10-06T13:00:06.193Z,29.89
2018-10-06T13:02:35.841Z,29.47
2018-10-06T13:05:04.975Z,29.11
2018-10-06T13:07:34.092Z,29.34
2018-10-06T13:10:03.307Z,27.82
2018-10-06T13:12:32.456Z,27.68
2018-10-06T13:15:01.594Z,28.58
2018-10-06T13:17:31.310Z,28.78
2018-10-06T13:20:00.968Z,27.06
2018-10-06T13:22:30.056Z,27.18
2018-10-06T13:24:59.171Z,27.31
2018-10-06T13:27:28.266Z,26.91
2018-10-06T13:29:57.398Z,25.97
2018-10-06T13:32:26.675Z,26.10
2018-10-06T13:34:56.314Z,26.50
2018-10-06T13:37:25.522Z,25.98
2018-10-06T13:39:54.790Z,25.56
2018-10-06T13:42:23.902Z,25.75
2018-10-06T13:44:53.027Z,25.74
2018-10-06T13:47:22.118Z,25.35
2018-10-06T13:49:51.218Z,25.81
2018-10-06T13:52:20.313Z,26.25
2018-10-06T13:54:49.560Z,26.35
2018-10-06T13:57:19.090Z,26.76
2018-10-06T13:59:49.762Z,26.71
2018-10-06T14:02:18.838Z,27.03
2018-10-06T14:04:47.925Z,27.43
2018-10-06T14:07:17.842Z,27.56
2018-10-06T14:09:46.942Z,27.82
2018-10-06T14:12:16.199Z,27.88
2018-10-06T14:14:46.043Z,26.70
2018-10-06T14:17:15.646Z,26.88
2018-10-06T14:19:45.030Z,26.70
2018-10-06T14:22:13.811Z,26.69
2018-10-06T14:24:43.001Z,26.19
2018-10-06T14:27:12.103Z,26.57
2018-10-06T14:29:41.656Z,26.58
2018-10-06T14:32:10.866Z,26.39
2018-10-06T14:34:40.538Z,26.04
2018-10-06T14:37:10.700Z,26.26
2018-10-06T14:39:39.929Z,26.19
2018-10-06T14:42:09.054Z,25.92
2018-10-06T14:44:38.318Z,25.31
2018-10-06T14:47:07.585Z,25.28
2018-10-06T14:49:36.615Z,25.27
2018-10-06T14:52:05.966Z,25.13
2018-10-06T14:54:35.693Z,25.28
2018-10-06T14:57:05.137Z,25.28
2018-10-06T14:59:35.546Z,25.40
2018-10-06T15:02:04.955Z,25.39
2018-10-06T15:04:34.422Z,25.43
2018-10-06T15:07:03.566Z,25.22
2018-10-06T15:09:32.908Z,25.00
2018-10-06T15:12:02.499Z,25.27
2018-10-06T15:14:31.578Z,25.26
2018-10-06T15:17:01.579Z,25.01
2018-10-06T15:19:30.674Z,24.99
2018-10-06T15:21:59.864Z,24.72
2018-10-06T15:24:30.478Z,24.79
2018-10-06T15:26:59.794Z,24.77
2018-10-06T15:29:28.978Z,24.77
2018-10-06T15:31:59.914Z,24.66
2018-10-06T15:34:28.784Z,24.59
2018-10-06T15:36:58.490Z,24.38
2018-10-06T15:39:28.837Z,24.17
2018-10-06T15:41:58.278Z,24.07
2018-10-06T15:44:28.254Z,23.84
2018-10-06T15:46:57.767Z,23.83
2018-10-06T15:49:27.698Z,23.59
2018-10-06T15:51:56.610Z,23.27
2018-10-06T15:54:25.791Z,23.10
2018-10-06T15:56:55.290Z,22.87
2018-10-06T15:59:24.861Z,22.65
2018-10-06T16:01:53.566Z,22.48
2018-10-06T16:04:24.062Z,22.27
2018-10-06T16:06:53.507Z,22.05
2018-10-06T16:09:22.667Z,21.85
2018-10-06T16:11:51.817Z,21.77
2018-10-06T16:14:21.363Z,21.66
2018-10-06T16:16:50.495Z,21.60
2018-10-06T16:19:19.594Z,21.50
2018-10-06T16:21:48.683Z,21.50
2018-10-06T16:24:17.794Z,21.37
2018-10-06T16:26:47.696Z,21.21
2018-10-06T16:29:17.082Z,21.08
2018-10-06T16:31:46.734Z,20.88
2018-10-06T16:34:18.299Z,20.65
2018-10-06T16:36:48.144Z,20.45
2018-10-06T16:39:19.779Z,20.33
2018-10-06T16:41:48.886Z,20.20
2018-10-06T16:44:17.988Z,20.00
2018-10-06T16:46:47.874Z,19.72
2018-10-06T16:49:17.922Z,19.62
2018-10-06T16:51:48.148Z,19.38
2018-10-06T16:54:17.401Z,19.49
2018-10-06T16:56:46.218Z,19.44
2018-10-06T16:59:15.782Z,19.37
2018-10-06T17:01:47.596Z,19.24
2018-10-06T17:04:18.603Z,19.17
2018-10-06T17:06:48.010Z,19.11
2018-10-06T17:09:21.737Z,19.16
2018-10-06T17:11:51.939Z,19.01
2018-10-06T17:14:23.483Z,18.97
2018-10-06T17:16:52.583Z,18.80
2018-10-06T17:19:22.482Z,18.65
2018-10-06T17:21:51.646Z,18.72
2018-10-06T17:24:21.553Z,18.60
2018-10-06T17:26:50.600Z,18.38
2018-10-06T17:29:19.946Z,18.33
2018-10-06T17:31:52.286Z,18.39
2018-10-06T17:34:21.450Z,18.27
2018-10-06T17:36:51.086Z,18.10
2018-10-06T17:39:20.290Z,18.00
2018-10-06T17:41:50.086Z,17.91
2018-10-06T17:44:19.267Z,17.97
2018-10-06T17:46:49.886Z,18.01
2018-10-06T17:49:18.846Z,17.94
2018-10-06T17:51:48.018Z,17.84
2018-10-06T17:54:17.774Z,17.80
2018-10-06T17:56:47.113Z,17.78
2018-10-06T17:59:16.220Z,17.72
2018-10-06T18:01:45.616Z,17.62
2018-10-06T18:04:15.410Z,17.55
2018-10-06T18:06:44.911Z,17.52
2018-10-06T18:09:21.082Z,17.46
2018-10-06T18:11:51.490Z,17.24
2018-10-06T18:14:20.899Z,16.96
2018-10-06T18:16:50.452Z,16.81
2018-10-06T18:19:19.583Z,16.87
2018-10-06T18:21:48.691Z,16.98
2018-10-06T18:24:17.805Z,16.84
2018-10-06T18:26:49.905Z,16.79
2018-10-06T18:29:19.515Z,16.82
2018-10-06T18:31:48.840Z,17.00
2018-10-06T18:34:18.363Z,16.96
2018-10-06T18:36:47.715Z,16.97
2018-10-06T18:39:16.863Z,17.04
2018-10-06T18:41:46.166Z,17.07
2018-10-06T18:44:15.453Z,17.09
2018-10-06T18:46:46.231Z,17.11
2018-10-06T18:49:15.487Z,17.12
2018-10-06T18:51:44.713Z,17.10
2018-10-06T18:54:14.451Z,17.05
2018-10-06T18:56:43.702Z,17.15
2018-10-06T18:59:13.399Z,17.11
2018-10-06T19:01:42.897Z,17.05
2018-10-06T19:04:12.552Z,17.03
2018-10-06T19:06:41.694Z,16.97
2018-10-06T19:09:11.061Z,16.82
2018-10-06T19:11:40.510Z,16.83
2018-10-06T19:14:12.106Z,16.87
2018-10-06T19:16:41.337Z,16.60
2018-10-06T19:19:11.107Z,16.31
2018-10-06T19:21:40.394Z,16.23
2018-10-06T19:24:10.071Z,16.26
2018-10-06T19:26:39.411Z,16.40
2018-10-06T19:29:09.134Z,16.40
2018-10-06T19:31:38.999Z,16.36
2018-10-06T19:34:08.208Z,16.29
2018-10-06T19:36:37.466Z,16.18
2018-10-06T19:39:08.125Z,16.15
2018-10-06T19:41:38.191Z,16.08
2018-10-06T19:44:07.443Z,16.07
2018-10-06T19:46:37.050Z,16.06
2018-10-06T19:49:06.396Z,16.00
2018-10-06T19:51:35.949Z,16.04
2018-10-06T19:54:05.667Z,16.14
2018-10-06T19:56:34.799Z,16.24
2018-10-06T19:59:03.892Z,16.19
2018-10-06T20:01:33.040Z,16.19
2018-10-06T20:04:02.203Z,16.13
2018-10-06T20:06:31.482Z,16.06
2018-10-06T20:09:00.691Z,15.95
2018-10-06T20:11:29.695Z,15.91
2018-10-06T20:14:00.926Z,16.06
2018-10-06T20:16:30.086Z,16.05
2018-10-06T20:18:59.230Z,16.07
2018-10-06T20:21:29.750Z,16.06
2018-10-06T20:23:58.982Z,15.97
2018-10-06T20:26:28.195Z,15.90
2018-10-06T20:28:59.142Z,15.88
2018-10-06T20:31:29.536Z,15.82
2018-10-06T20:33:58.672Z,15.74
2018-10-06T20:36:27.762Z,15.82
2018-10-06T20:38:57.010Z,15.79
2018-10-06T20:41:26.167Z,15.72
2018-10-06T20:43:55.298Z,15.72
2018-10-06T20:46:25.004Z,15.76
2018-10-06T20:48:54.077Z,15.80
2018-10-06T20:51:23.156Z,15.78
2018-10-06T20:53:52.270Z,15.70
2018-10-06T20:56:21.403Z,15.63
2018-10-06T20:58:50.500Z,15.55
2018-10-06T21:01:19.588Z,15.45
2018-10-06T21:03:49.143Z,15.29
2018-10-06T21:06:18.246Z,15.27
2018-10-06T21:08:47.345Z,15.26
2018-10-06T21:11:16.507Z,15.23
2018-10-06T21:13:45.610Z,15.05
2018-10-06T21:16:14.698Z,15.03
2018-10-06T21:18:43.972Z,15.07
2018-10-06T21:21:13.085Z,14.90
2018-10-06T21:23:42.178Z,14.72
2018-10-06T21:26:11.315Z,14.80
2018-10-06T21:28:40.453Z,14.89
2018-10-06T21:31:09.613Z,14.94
2018-10-06T21:33:38.634Z,15.02
2018-10-06T21:36:07.903Z,15.09
2018-10-06T21:38:37.024Z,14.94
2018-10-06T21:41:06.227Z,14.88
2018-10-06T21:43:35.366Z,14.90
2018-10-06T21:46:04.531Z,14.85
2018-10-06T21:48:33.931Z,14.93
2018-10-06T21:51:03.114Z,14.96
2018-10-06T21:53:32.209Z,14.92
2018-10-06T21:56:01.484Z,14.89
2018-10-06T21:58:31.166Z,14.90
2018-10-06T22:01:05.680Z,14.82
2018-10-06T22:03:35.323Z,14.82
2018-10-06T22:06:05.575Z,14.89
2018-10-06T22:08:35.478Z,14.92
2018-10-06T22:11:04.672Z,14.93
2018-10-06T22:13:33.787Z,14.76
2018-10-06T22:16:03.326Z,14.73
2018-10-06T22:18:32.709Z,14.69
2018-10-06T22:21:01.518Z,14.69
2018-10-06T22:23:31.102Z,14.40
2018-10-06T22:25:59.874Z,14.08
2018-10-06T22:28:29.038Z,13.97
2018-10-06T22:30:58.359Z,14.00
2018-10-06T22:33:27.510Z,14.04
2018-10-06T22:35:56.638Z,13.88
2018-10-06T22:38:25.730Z,13.68
2018-10-06T22:40:55.038Z,13.55
2018-10-06T22:43:23.759Z,13.54
2018-10-06T22:45:52.863Z,13.38
2018-10-06T22:48:22.082Z,13.37
2018-10-06T22:50:51.484Z,13.46
2018-10-06T22:53:20.302Z,13.52
2018-10-06T22:55:49.434Z,13.48
2018-10-06T22:58:18.542Z,13.41
2018-10-06T23:00:47.722Z,13.24
2018-10-06T23:03:17.054Z,13.23
2018-10-06T23:05:46.070Z,13.16
2018-10-06T23:08:15.221Z,13.09
2018-10-06T23:10:45.338Z,12.94
2018-10-06T23:13:14.458Z,12.95
2018-10-06T23:15:47.722Z,12.93
2018-10-06T23:18:16.836Z,12.89
2018-10-06T23:20:46.935Z,12.77
2018-10-06T23:23:16.046Z,12.71
2018-10-06T23:25:45.144Z,12.63
2018-10-06T23:28:14.249Z,12.63
2018-10-06T23:30:43.355Z,12.61
2018-10-06T23:33:12.534Z,12.62
2018-10-06T23:35:41.654Z,12.61
2018-10-06T23:38:10.817Z,12.61
2018-10-06T23:40:40.745Z,12.53
2018-10-06T23:43:10.013Z,12.50
2018-10-06T23:45:38.881Z,12.56
2018-10-06T23:48:08.582Z,12.68
2018-10-06T23:50:37.688Z,12.76
2018-10-06T23:53:06.810Z,12.82
2018-10-06T23:55:35.906Z,12.70
2018-10-06T23:58:05.003Z,12.66
